Fletchers Landing Township, Maine
Current Conditions -  °F | °C
As of 9:35 AM on Saturday 20 Dec 2014 (Local Time) from KBHB Reporting Station
Overcast Overcast  
Wind Chill: 15°   Ceiling: 1200
Heat Index: 25°   Visibility: 10mi
Dew Point: 21°   Wind: 10mph
Humidity: 86%   Direction: 40°NE
Pressure: 30.33"   Gusts: NA
Location:  44.6651°N, 68.3944°W
Report Text: KBHB 201435Z AUTO 04009KT 10SM OVC012 M04/M06 A3033 RMK AO1
Loading
Personal Weather Stations






























Interactive Weather Map New forecast layout! Learn more

10-Day Weather Forecast

Advertisements
Track Severe Weather on mobile